Time;durP1;ratioP1;P1;durP2;ratioP2;P2;SDS_P1;SDS_P2;PMS_P1;PMS_P2;Temp;Humidity;BMP_temperature;BMP_pressure;BME280_temperature;BME280_humidity;BME280_pressure;Samples;Min_cycle;Max_cycle;Signal;HPM_P1;HPM_P2
2022/06/19 00:02:00;;;;;;;;;11.00;10.40;;;;;29.11;45.63;100059.03;5077806;27;45456;-60
2022/06/19 00:04:27;;;;;;;;;18.00;16.00;;;;;28.78;47.79;100060.00;5077666;27;45299;-61
2022/06/19 00:06:53;;;;;;;;;13.75;13.50;;;;;28.47;48.60;100073.59;5076516;27;45558;-62
2022/06/19 00:09:19;;;;;;;;;17.00;15.80;;;;;28.10;49.86;100061.44;5077468;27;45421;-59
2022/06/19 00:11:45;;;;;;;;;17.00;16.00;;;;;27.76;50.41;100068.84;5077441;28;45435;-61
2022/06/19 00:14:11;;;;;;;;;16.50;15.75;;;;;27.56;50.38;100071.53;5075001;27;45650;-60
2022/06/19 00:16:36;;;;;;;;;14.25;14.25;;;;;27.56;50.69;100101.56;5092688;27;45914;-60
2022/06/19 00:19:03;;;;;;;;;14.75;12.50;;;;;27.40;51.38;100122.97;5076149;27;45426;-60
2022/06/19 00:21:28;;;;;;;;;16.00;15.25;;;;;27.38;50.51;100123.19;5077323;27;45356;-60
2022/06/19 00:23:54;;;;;;;;;15.00;13.75;;;;;27.34;51.24;100143.75;5077531;27;45528;-61
2022/06/19 00:26:19;;;;;;;;;12.25;12.25;;;;;27.17;51.07;100115.13;5077149;27;46650;-60
2022/06/19 00:28:47;;;;;;;;;13.00;12.50;;;;;27.01;50.82;100135.44;5074320;27;45479;-61
2022/06/19 00:31:13;;;;;;;;;15.25;13.00;;;;;26.62;51.38;100122.44;5076860;27;45390;-61
2022/06/19 00:33:39;;;;;;;;;14.75;11.25;;;;;26.48;51.17;100139.75;5077135;27;45602;-61
2022/06/19 00:36:05;;;;;;;;;17.25;14.25;;;;;26.48;51.07;100123.41;5076723;27;45632;-60
2022/06/19 00:38:32;;;;;;;;;13.25;13.25;;;;;26.44;50.52;100115.63;5076702;27;45345;-59
2022/06/19 00:40:58;;;;;;;;;7.75;7.75;;;;;26.22;50.07;100122.16;5076948;27;45246;-63
2022/06/19 00:43:25;;;;;;;;;9.50;9.50;;;;;25.78;50.22;100108.78;5076291;27;45230;-60
2022/06/19 00:45:51;;;;;;;;;10.50;10.00;;;;;25.68;50.28;100120.00;5076829;27;45338;-59
2022/06/19 00:48:30;;;;;;;;;10.00;9.50;;;;;25.43;49.83;100118.69;5076653;27;45434;-59
2022/06/19 00:51:02;;;;;;;;;11.00;8.50;;;;;24.98;50.72;100135.09;5077172;27;45285;-61
2022/06/19 00:53:46;;;;;;;;;15.00;9.00;;;;;24.83;50.69;100126.13;5076097;28;45460;-59
2022/06/19 00:56:19;;;;;;;;;9.50;7.75;;;;;24.67;51.14;100159.81;5076459;27;45332;-59
2022/06/19 00:58:48;;;;;;;;;6.25;6.25;;;;;24.53;51.04;100162.53;5076455;28;45349;-60
2022/06/19 01:01:17;;;;;;;;;9.00;7.00;;;;;24.38;50.75;100166.09;5073807;28;45477;-59
2022/06/19 01:04:04;;;;;;;;;3.00;3.00;;;;;24.21;50.83;100169.09;5076696;27;45355;-58
2022/06/19 01:06:30;;;;;;;;;9.33;6.33;;;;;23.92;51.43;100181.56;5076203;27;45546;-59
2022/06/19 01:08:57;;;;;;;;;9.75;9.75;;;;;23.75;51.22;100197.16;5076690;27;45401;-58
2022/06/19 01:11:26;;;;;;;;;14.00;10.25;;;;;23.46;51.54;100197.84;5068441;27;45571;-59
2022/06/19 01:13:52;;;;;;;;;11.67;11.33;;;;;23.24;52.45;100198.63;5056095;28;45627;-59
2022/06/19 01:16:18;;;;;;;;;11.67;10.33;;;;;22.98;52.93;100181.78;5055861;28;46171;-59
2022/06/19 01:18:44;;;;;;;;;14.00;13.00;;;;;22.85;52.82;100187.78;5055339;28;45407;-59
2022/06/19 01:21:22;;;;;;;;;14.33;9.33;;;;;22.83;53.03;100185.25;5076293;28;45264;-61
2022/06/19 01:24:01;;;;;;;;;15.33;12.67;;;;;22.53;53.07;100175.16;5076429;27;45345;-58
2022/06/19 01:26:33;;;;;;;;;13.33;11.33;;;;;22.23;54.14;100172.13;5076080;27;45440;-59
2022/06/19 01:29:01;;;;;;;;;13.33;9.33;;;;;22.13;54.56;100173.31;5077327;27;45419;-59
2022/06/19 01:31:32;;;;;;;;;13.00;13.00;;;;;21.92;54.66;100174.66;5080379;27;45345;-59
2022/06/19 01:34:26;;;;;;;;;14.00;12.00;;;;;21.71;54.80;100177.84;5080238;27;45450;-60
2022/06/19 01:36:49;;;;;;;;;19.33;13.00;;;;;21.65;55.43;100197.50;5077935;28;45940;-60
2022/06/19 01:39:15;;;;;;;;;15.00;9.33;;;;;21.52;55.35;100199.84;5078101;28;45319;-59
2022/06/19 01:41:40;;;;;;;;;13.67;12.33;;;;;21.33;55.58;100189.28;5079685;27;45376;-59
2022/06/19 01:44:06;;;;;;;;;14.00;10.00;;;;;21.24;55.77;100201.09;5079838;27;45394;-58
2022/06/19 01:46:31;;;;;;;;;15.00;13.67;;;;;21.09;56.03;100217.06;5079366;27;46501;-58
2022/06/19 01:48:57;;;;;;;;;12.00;11.67;;;;;21.14;55.99;100203.91;5079634;27;45259;-59
2022/06/19 01:51:23;;;;;;;;;17.67;15.67;;;;;21.04;56.30;100193.22;5078538;27;45452;-58
2022/06/19 01:53:48;;;;;;;;;13.67;11.00;;;;;20.88;56.49;100176.94;5079794;27;45605;-60
2022/06/19 01:56:14;;;;;;;;;14.33;13.67;;;;;20.79;56.90;100159.00;5079257;27;45339;-60
2022/06/19 01:58:47;;;;;;;;;16.33;13.33;;;;;20.73;56.94;100148.84;5079360;27;45351;-58
2022/06/19 02:01:12;;;;;;;;;13.00;11.00;;;;;20.77;56.56;100139.38;5077870;27;45330;-59
2022/06/19 02:03:50;;;;;;;;;13.33;13.33;;;;;20.84;56.52;100140.44;5078376;27;45477;-59
2022/06/19 02:06:20;;;;;;;;;12.00;9.67;;;;;20.79;56.28;100161.69;5078784;27;46218;-58
2022/06/19 02:08:47;;;;;;;;;18.00;13.33;;;;;20.59;56.37;100186.25;5079305;27;45286;-58
2022/06/19 02:11:15;;;;;;;;;15.33;13.33;;;;;20.47;56.74;100203.75;5079297;27;45361;-57
2022/06/19 02:13:41;;;;;;;;;12.67;12.67;;;;;20.47;56.79;100219.97;5079498;27;45291;-60
2022/06/19 02:16:10;;;;;;;;;9.00;9.00;;;;;20.60;56.94;100238.44;5078817;27;46582;-58
2022/06/19 02:18:39;;;;;;;;;11.67;11.33;;;;;20.61;56.49;100251.78;5077542;27;45540;-58
2022/06/19 02:21:15;;;;;;;;;13.00;12.00;;;;;20.66;56.19;100228.84;5079298;27;45400;-58
2022/06/19 02:23:41;;;;;;;;;15.67;13.33;;;;;20.82;56.07;100235.19;5078759;27;45507;-59
2022/06/19 02:26:09;;;;;;;;;14.67;10.00;;;;;20.82;55.78;100239.75;5094549;27;46204;-58
2022/06/19 02:28:37;;;;;;;;;13.67;10.33;;;;;20.68;56.53;100259.25;5078730;27;45289;-58
2022/06/19 02:31:06;;;;;;;;;10.00;10.00;;;;;20.69;56.25;100261.78;5078591;27;45359;-58
2022/06/19 02:33:35;;;;;;;;;6.33;3.33;;;;;20.57;56.43;100246.84;5079357;27;45550;-58
2022/06/19 02:36:01;;;;;;;;;10.67;9.33;;;;;20.36;57.31;100243.63;5077501;27;45470;-59
2022/06/19 02:38:27;;;;;;;;;13.00;12.33;;;;;20.21;57.48;100259.56;5077665;27;45280;-57
2022/06/19 02:40:55;;;;;;;;;14.67;11.67;;;;;20.16;57.96;100264.56;5077974;27;45397;-59
2022/06/19 02:43:30;;;;;;;;;11.33;11.33;;;;;20.11;58.17;100275.00;5078762;27;45273;-58
2022/06/19 02:45:56;;;;;;;;;9.00;9.00;;;;;20.09;58.18;100277.00;5078358;28;45313;-58
2022/06/19 02:48:31;;;;;;;;;14.00;10.67;;;;;20.06;58.13;100278.16;5077241;27;45254;-59
2022/06/19 02:50:59;;;;;;;;;17.33;11.00;;;;;20.02;58.59;100322.63;5075992;28;45555;-58
2022/06/19 02:53:24;;;;;;;;;11.00;7.67;;;;;20.15;57.71;100495.06;5078881;27;45572;-58
2022/06/19 02:55:50;;;;;;;;;11.00;9.67;;;;;20.28;56.75;100495.56;5078052;27;46091;-58
2022/06/19 02:58:19;;;;;;;;;12.00;9.00;;;;;20.27;56.88;100370.50;5078302;27;45547;-59
2022/06/19 03:00:45;;;;;;;;;12.67;11.33;;;;;20.26;57.81;100433.59;5078407;27;45392;-58
2022/06/19 03:03:38;;;;;;;;;15.00;10.67;;;;;20.30;57.45;100477.34;5078578;28;45245;-58
2022/06/19 03:06:04;;;;;;;;;6.33;4.00;;;;;20.22;57.56;100466.47;5077193;27;46208;-58
2022/06/19 03:08:30;;;;;;;;;12.00;11.00;;;;;20.12;58.24;100460.28;5078244;28;45355;-58
2022/06/19 03:10:55;;;;;;;;;11.00;9.33;;;;;20.11;58.17;100447.78;5077461;27;45686;-58
2022/06/19 03:13:21;;;;;;;;;12.00;9.00;;;;;20.23;57.28;100406.06;5058246;28;45301;-58
2022/06/19 03:15:47;;;;;;;;;11.33;6.33;;;;;20.30;57.39;100442.25;5058010;28;46434;-58
2022/06/19 03:18:13;;;;;;;;;12.33;5.33;;;;;20.37;57.22;100388.47;5057958;28;45338;-60
2022/06/19 03:20:38;;;;;;;;;13.67;12.33;;;;;20.34;56.99;100413.94;5058251;28;45609;-58
2022/06/19 03:23:04;;;;;;;;;4.00;4.00;;;;;20.49;56.65;100380.03;5058330;28;45598;-61
2022/06/19 03:25:29;;;;;;;;;12.00;10.00;;;;;20.36;56.83;100422.75;5074332;27;45554;-57
2022/06/19 03:27:55;;;;;;;;;12.00;10.67;;;;;20.35;57.00;100452.59;5076912;28;45399;-57
2022/06/19 03:30:21;;;;;;;;;6.00;6.00;;;;;20.44;56.68;100417.44;5078260;27;45157;-58
2022/06/19 03:32:47;;;;;;;;;11.33;11.33;;;;;20.36;56.76;100400.28;5078263;28;45459;-58
2022/06/19 03:35:14;;;;;;;;;16.00;11.00;;;;;20.23;56.97;100400.66;5077843;27;46179;-58
2022/06/19 03:37:40;;;;;;;;;12.00;10.00;;;;;20.01;57.37;100424.38;5077877;27;45462;-58
2022/06/19 03:40:06;;;;;;;;;12.00;11.67;;;;;19.99;57.57;100407.47;5077109;27;45497;-59
2022/06/19 03:42:31;;;;;;;;;12.00;11.67;;;;;19.92;57.65;100405.53;5078212;27;45503;-58
2022/06/19 03:44:57;;;;;;;;;13.00;13.00;;;;;19.98;57.28;100413.88;5077906;27;46263;-58
2022/06/19 03:47:25;;;;;;;;;16.00;14.00;;;;;20.09;56.56;100428.19;5077723;27;45277;-58
2022/06/19 03:49:51;;;;;;;;;17.33;12.00;;;;;20.02;56.92;100420.66;5093319;27;45471;-59
2022/06/19 03:52:17;;;;;;;;;10.00;8.67;;;;;20.07;56.92;100439.13;5077621;27;45251;-58
2022/06/19 03:54:42;;;;;;;;;14.00;12.00;;;;;20.06;56.56;100420.41;5077646;27;46063;-59
2022/06/19 03:57:11;;;;;;;;;14.67;14.67;;;;;20.03;56.82;100384.56;5076604;27;45843;-58
2022/06/19 03:59:36;;;;;;;;;13.00;11.67;;;;;20.12;56.62;100373.88;5076490;28;45307;-58
2022/06/19 04:02:03;;;;;;;;;16.33;13.00;;;;;20.21;56.45;100367.56;5077761;27;45359;-59
2022/06/19 04:04:29;;;;;;;;;13.33;13.33;;;;;20.28;56.01;100360.53;5075859;28;45302;-57
2022/06/19 04:06:54;;;;;;;;;11.00;11.00;;;;;20.35;55.88;100387.78;5077183;27;45326;-57
2022/06/19 04:09:20;;;;;;;;;14.67;12.33;;;;;20.40;55.31;100425.97;5077516;27;45221;-57
2022/06/19 04:11:45;;;;;;;;;12.00;10.67;;;;;20.47;55.27;100489.25;5076541;27;45466;-59
2022/06/19 04:14:12;;;;;;;;;17.33;14.33;;;;;20.52;55.11;100581.47;5075852;28;46841;-57
2022/06/19 04:16:38;;;;;;;;;14.67;14.67;;;;;20.51;55.23;100510.38;5077755;27;45256;-58
2022/06/19 04:19:06;;;;;;;;;10.67;9.67;;;;;20.52;55.23;100379.69;5077264;27;45499;-59
2022/06/19 04:21:35;;;;;;;;;18.33;11.67;;;;;20.39;57.49;100300.03;5075794;27;45366;-58
2022/06/19 04:24:04;;;;;;;;;15.00;13.00;;;;;20.28;58.18;100257.91;5076285;27;46357;-60
2022/06/19 04:26:32;;;;;;;;;14.33;12.00;;;;;20.19;58.93;100283.16;5076786;27;45353;-59
2022/06/19 04:28:58;;;;;;;;;16.33;12.67;;;;;20.19;59.36;100329.91;5077087;27;45360;-57
2022/06/19 04:31:24;;;;;;;;;18.33;15.33;;;;;20.15;60.38;100344.72;5075813;27;45611;-61
2022/06/19 04:33:51;;;;;;;;;15.00;15.00;;;;;20.20;60.85;100328.91;5076824;27;45550;-57
2022/06/19 04:36:19;;;;;;;;;14.67;11.67;;;;;20.11;59.94;100319.03;5076954;27;45458;-57
2022/06/19 04:38:47;;;;;;;;;11.67;9.33;;;;;20.10;60.11;100332.69;5077146;27;45361;-57
2022/06/19 04:41:20;;;;;;;;;12.33;11.00;;;;;19.90;59.55;100357.09;5077386;28;45537;-59
2022/06/19 04:43:45;;;;;;;;;14.67;11.33;;;;;19.82;59.43;100381.31;5076682;28;46348;-57
2022/06/19 04:46:11;;;;;;;;;13.00;10.00;;;;;19.86;60.97;100353.00;5073980;28;45575;-58
2022/06/19 04:48:38;;;;;;;;;10.00;9.00;;;;;19.85;60.74;100383.69;5076919;27;45377;-59
2022/06/19 04:51:05;;;;;;;;;8.67;8.00;;;;;19.80;59.21;100347.38;5075893;28;45559;-57
2022/06/19 04:53:32;;;;;;;;;10.33;9.67;;;;;19.74;61.11;100298.41;5076680;27;45391;-58
2022/06/19 04:55:58;;;;;;;;;12.67;7.67;;;;;19.71;60.06;100331.09;5077045;27;45435;-59
2022/06/19 04:58:24;;;;;;;;;9.67;7.67;;;;;19.72;59.97;100315.75;5076864;27;45547;-58
2022/06/19 05:00:51;;;;;;;;;9.33;8.00;;;;;19.65;60.05;100320.88;5091324;27;45576;-58
2022/06/19 05:03:18;;;;;;;;;7.33;5.00;;;;;19.69;59.99;100299.88;5075711;28;45386;-59
2022/06/19 05:05:44;;;;;;;;;12.00;8.00;;;;;19.50;59.21;100325.06;5076796;27;45436;-59
2022/06/19 05:08:10;;;;;;;;;11.33;9.33;;;;;19.58;59.59;100349.47;5076925;28;45266;-59
2022/06/19 05:10:35;;;;;;;;;11.33;8.33;;;;;19.62;60.27;100347.31;5076786;27;45559;-59
2022/06/19 05:13:02;;;;;;;;;11.33;8.33;;;;;19.78;60.81;100342.13;5053307;28;45774;-60
2022/06/19 05:15:28;;;;;;;;;9.33;6.33;;;;;19.63;60.04;100370.59;5076094;27;45374;-59
2022/06/19 05:17:53;;;;;;;;;9.00;8.00;;;;;19.61;59.99;100391.50;5063286;27;45388;-58
2022/06/19 05:20:19;;;;;;;;;11.00;8.00;;;;;19.68;60.09;100371.03;5056029;28;45624;-59
2022/06/19 05:22:44;;;;;;;;;7.67;7.67;;;;;19.66;60.49;100332.53;5055807;28;45892;-58
2022/06/19 05:25:11;;;;;;;;;6.00;6.00;;;;;19.42;60.72;100277.28;5072652;28;45507;-57
2022/06/19 05:27:38;;;;;;;;;6.33;6.33;;;;;19.16;61.52;100243.94;5074933;28;45260;-58
2022/06/19 05:30:06;;;;;;;;;9.67;6.67;;;;;19.24;62.44;100268.28;5076213;27;45535;-58
2022/06/19 05:32:32;;;;;;;;;6.33;6.00;;;;;19.20;62.27;100234.53;5074423;28;48097;-56
2022/06/19 05:34:57;;;;;;;;;7.67;6.00;;;;;19.17;63.41;100163.91;5074780;27;45400;-59
2022/06/19 05:37:23;;;;;;;;;7.67;5.67;;;;;18.83;63.08;100162.66;5076246;27;45468;-58
2022/06/19 05:39:48;;;;;;;;;5.33;5.00;;;;;18.74;63.22;100182.41;5076353;27;45481;-62
2022/06/19 05:42:14;;;;;;;;;3.00;3.00;;;;;18.72;62.61;100218.56;5075733;27;45452;-59
2022/06/19 05:44:39;;;;;;;;;6.00;4.00;;;;;18.68;63.47;100271.91;5076019;27;45421;-57
2022/06/19 05:47:05;;;;;;;;;2.00;2.00;;;;;18.75;62.51;100323.34;5075862;27;45875;-57
2022/06/19 05:49:32;;;;;;;;;6.67;4.00;;;;;18.76;63.25;100336.69;5075159;27;45488;-58
2022/06/19 05:51:59;;;;;;;;;12.33;7.00;;;;;18.56;61.59;100318.81;5075899;27;46160;-59
2022/06/19 05:54:26;;;;;;;;;7.00;6.00;;;;;18.54;62.11;100275.03;5075830;27;45384;-58
2022/06/19 05:56:52;;;;;;;;;5.00;5.00;;;;;18.65;62.64;100261.41;5074810;27;45438;-63
2022/06/19 05:59:17;;;;;;;;;5.67;5.67;;;;;18.72;63.20;100238.28;5075938;27;45528;-59
2022/06/19 06:01:43;;;;;;;;;7.33;4.33;;;;;18.93;62.64;100215.66;5074525;28;48240;-58
2022/06/19 06:04:08;;;;;;;;;7.00;5.00;;;;;18.98;61.96;100189.09;5091473;27;45326;-58
2022/06/19 06:06:33;;;;;;;;;5.00;3.00;;;;;18.98;62.28;100176.47;5076007;27;45784;-58
2022/06/19 06:08:59;;;;;;;;;4.00;4.00;;;;;18.81;62.23;100164.66;5074616;28;45407;-60
2022/06/19 06:11:25;;;;;;;;;5.00;5.00;;;;;18.76;62.11;100164.28;5075527;27;45935;-59
2022/06/19 06:13:51;;;;;;;;;8.00;4.00;;;;;18.88;62.56;100147.88;5074683;27;45389;-58
2022/06/19 06:16:19;;;;;;;;;3.00;3.00;;;;;18.83;61.61;100119.56;5077252;27;45295;-57
2022/06/19 06:18:45;;;;;;;;;4.00;4.00;;;;;18.69;61.47;100133.53;5078217;28;45602;-58
2022/06/19 06:21:17;;;;;;;;;5.00;4.00;;;;;18.51;61.71;100198.06;5079540;27;45839;-59
2022/06/19 06:23:43;;;;;;;;;3.00;3.00;;;;;18.58;62.32;100217.16;5080167;27;45357;-57
2022/06/19 06:26:17;;;;;;;;;4.00;3.00;;;;;18.72;61.44;100259.81;5078687;27;45227;-59
2022/06/19 06:28:47;;;;;;;;;5.00;3.33;;;;;18.74;60.35;100329.72;5059068;28;45319;-58
2022/06/19 06:31:13;;;;;;;;;3.00;3.00;;;;;18.76;61.17;100366.31;5058450;28;46352;-59
2022/06/19 06:33:39;;;;;;;;;4.00;4.00;;;;;18.82;61.21;100381.91;5077482;27;45377;-60
2022/06/19 06:36:05;;;;;;;;;7.00;4.33;;;;;18.95;62.02;100275.66;5094981;27;45423;-58
2022/06/19 06:38:30;;;;;;;;;5.33;4.00;;;;;18.83;61.37;100308.16;5077625;28;45545;-59
2022/06/19 06:40:56;;;;;;;;;4.00;2.00;;;;;18.85;61.86;100432.78;5077116;27;46701;-59
2022/06/19 06:43:22;;;;;;;;;6.33;6.33;;;;;18.81;60.94;100352.41;5078526;27;45342;-58
2022/06/19 06:45:49;;;;;;;;;3.67;2.67;;;;;18.57;62.46;100336.66;5078703;27;45316;-58
2022/06/19 06:48:15;;;;;;;;;4.00;3.00;;;;;18.54;63.34;100315.41;5078951;27;45547;-59
2022/06/19 06:50:41;;;;;;;;;4.67;3.00;;;;;18.43;62.23;100339.78;5077053;27;47275;-58
2022/06/19 06:53:08;;;;;;;;;7.00;4.00;;;;;18.51;63.60;100319.25;5078419;28;45456;-58
2022/06/19 06:55:42;;;;;;;;;3.67;2.67;;;;;18.51;62.44;100243.00;5078439;27;45460;-58
2022/06/19 06:58:08;;;;;;;;;4.00;2.00;;;;;18.38;63.16;100204.78;5078883;27;45326;-58
2022/06/19 07:00:34;;;;;;;;;8.00;4.33;;;;;18.45;63.23;100198.63;5076883;28;45424;-58
2022/06/19 07:02:59;;;;;;;;;4.67;4.67;;;;;18.34;62.63;100171.03;5077684;27;45337;-59
2022/06/19 07:05:26;;;;;;;;;4.00;2.00;;;;;18.20;63.22;100161.56;5078582;27;45485;-59
2022/06/19 07:07:52;;;;;;;;;4.33;3.00;;;;;18.22;63.70;100168.50;5077184;28;45487;-63
2022/06/19 07:10:17;;;;;;;;;5.33;4.00;;;;;18.19;63.43;100209.19;5060065;27;46126;-57
2022/06/19 07:12:43;;;;;;;;;2.67;2.67;;;;;18.23;63.83;100240.22;5069721;27;45238;-58
2022/06/19 07:15:11;;;;;;;;;4.00;4.00;;;;;18.14;63.42;100288.66;5058260;28;45219;-58
2022/06/19 07:17:36;;;;;;;;;4.00;4.00;;;;;18.21;63.86;100359.75;5058030;28;45448;-58
2022/06/19 07:20:03;;;;;;;;;4.00;4.00;;;;;18.31;64.25;100355.25;5057446;28;45449;-60
2022/06/19 07:22:28;;;;;;;;;3.00;3.00;;;;;18.46;62.77;100350.28;5101934;27;45444;-57
2022/06/19 07:24:54;;;;;;;;;4.00;4.00;;;;;18.28;63.97;100377.06;5078080;27;45661;-58
2022/06/19 07:27:19;;;;;;;;;0.33;0.00;;;;;18.43;64.98;100353.25;5078123;27;45704;-58
2022/06/19 07:29:45;;;;;;;;;1.00;1.00;;;;;18.50;63.98;100333.72;5076726;27;45429;-58
2022/06/19 07:32:12;;;;;;;;;4.67;2.33;;;;;18.51;64.04;100366.88;5077301;27;45408;-59
2022/06/19 07:34:39;;;;;;;;;4.33;3.67;;;;;18.65;62.38;100438.34;5077985;27;45282;-59
2022/06/19 07:37:05;;;;;;;;;5.33;3.00;;;;;18.55;63.09;100527.19;5076787;27;45548;-58
2022/06/19 07:39:35;;;;;;;;;3.00;3.00;;;;;18.70;61.81;100520.44;5075868;27;45379;-59
2022/06/19 07:42:00;;;;;;;;;6.00;3.00;;;;;18.73;61.07;100486.97;5093553;27;45571;-59
2022/06/19 07:44:26;;;;;;;;;7.67;5.67;;;;;18.84;62.23;100463.44;5077805;27;45453;-59
2022/06/19 07:52:21;;;;;;;;;5.33;4.00;;;;;18.81;60.16;100463.72;5076945;28;45347;-59
2022/06/19 07:54:47;;;;;;;;;6.00;5.00;;;;;18.81;60.81;100461.03;5078032;27;45322;-58
2022/06/19 07:57:12;;;;;;;;;5.00;3.00;;;;;18.84;61.82;100435.63;5077638;27;45213;-61
2022/06/19 07:59:37;;;;;;;;;5.33;4.00;;;;;18.99;60.74;100454.91;5077056;27;45461;-61
2022/06/19 08:02:03;;;;;;;;;4.00;4.00;;;;;18.92;60.42;100513.94;5077205;27;45484;-61
2022/06/19 08:04:28;;;;;;;;;4.67;4.00;;;;;18.96;60.37;100622.28;5076735;27;45324;-59
2022/06/19 08:06:54;;;;;;;;;4.00;4.00;;;;;19.03;59.43;100645.00;5077447;27;45360;-61
2022/06/19 08:09:19;;;;;;;;;4.00;4.00;;;;;19.04;59.93;100557.78;5075704;27;45540;-60
2022/06/19 08:11:45;;;;;;;;;5.00;4.00;;;;;18.99;59.84;100490.78;5076955;27;45238;-59
2022/06/19 08:14:11;;;;;;;;;8.33;5.67;;;;;19.10;59.79;100492.50;5077440;27;45743;-60
2022/06/19 08:16:36;;;;;;;;;4.00;4.00;;;;;19.28;61.63;100480.00;5077494;27;45326;-60
2022/06/19 08:19:02;;;;;;;;;5.67;5.67;;;;;19.29;59.85;100433.16;5075566;27;46014;-59
2022/06/19 08:21:28;;;;;;;;;5.00;5.00;;;;;19.41;61.90;100398.78;5076951;27;45438;-60
2022/06/19 08:23:53;;;;;;;;;7.33;6.00;;;;;19.56;60.50;100383.84;5077030;27;45248;-59
2022/06/19 08:26:19;;;;;;;;;6.00;3.00;;;;;19.76;60.39;100387.28;5076485;27;45267;-60
2022/06/19 08:31:10;;;;;;;;;5.67;4.00;;;;;19.86;60.25;100398.88;5076020;27;45491;-59
2022/06/19 08:33:35;;;;;;;;;8.00;4.67;;;;;19.88;59.49;100393.34;5076655;27;45326;-59
2022/06/19 08:36:05;;;;;;;;;10.67;5.00;;;;;19.87;59.50;100384.41;5077182;27;45243;-59
2022/06/19 08:38:39;;;;;;;;;5.33;5.33;;;;;19.73;60.23;100366.00;5075824;27;46130;-60
2022/06/19 08:42:02;;;;;;;;;7.33;7.00;;;;;19.75;59.98;100334.31;5076597;27;45349;-59
2022/06/19 08:44:46;;;;;;;;;10.67;8.00;;;;;19.88;59.60;100324.03;4976279;28;45360;-59
2022/06/19 08:47:30;;;;;;;;;8.00;7.00;;;;;19.83;58.92;100337.13;4994738;28;45684;-60
2022/06/19 08:50:33;;;;;;;;;10.33;9.33;;;;;19.78;59.21;100327.78;5037443;28;46378;-60
2022/06/19 08:53:34;;;;;;;;;5.67;5.67;;;;;19.90;59.18;100311.22;5056288;28;45415;-60
2022/06/19 08:56:26;;;;;;;;;8.67;8.67;;;;;19.92;58.50;100301.16;5055125;28;45389;-62
2022/06/19 08:59:02;;;;;;;;;10.00;10.00;;;;;20.01;58.76;100316.41;5061235;28;45536;-60
2022/06/19 09:01:50;;;;;;;;;8.00;6.33;;;;;20.07;58.25;100327.59;5074990;27;45327;-59
2022/06/19 09:07:43;;;;;;;;;8.33;8.33;;;;;20.48;57.08;100339.66;5076375;28;45411;-59
2022/06/19 09:10:41;;;;;;;;;12.33;9.00;;;;;20.73;56.21;100348.81;5076574;27;45438;-58
2022/06/19 09:13:43;;;;;;;;;9.33;6.00;;;;;20.71;56.61;100373.28;5044051;28;45480;-60
2022/06/19 09:16:11;;;;;;;;;11.67;7.33;;;;;20.55;56.32;100390.19;5063082;28;45334;-58
2022/06/19 09:18:51;;;;;;;;;11.33;9.67;;;;;20.62;56.60;100414.75;5075962;27;45270;-60
2022/06/19 09:21:36;;;;;;;;;8.67;7.67;;;;;20.73;56.47;100425.34;5076529;27;45452;-59
2022/06/19 09:24:25;;;;;;;;;8.00;8.00;;;;;20.74;55.89;100442.41;5075992;28;45633;-60
2022/06/19 09:26:58;;;;;;;;;7.00;7.00;;;;;20.60;56.58;100452.75;5076181;27;45418;-59
2022/06/19 09:29:30;;;;;;;;;12.67;8.33;;;;;20.52;56.55;100449.94;5076280;27;45432;-60
2022/06/19 09:32:12;;;;;;;;;9.00;9.00;;;;;20.59;56.55;100461.84;5075242;27;45708;-59
2022/06/19 09:34:41;;;;;;;;;11.33;11.33;;;;;20.70;56.50;100457.19;5074507;27;45750;-60
2022/06/19 09:37:25;;;;;;;;;6.33;6.00;;;;;20.76;56.20;100464.69;5075874;27;45452;-59
2022/06/19 09:39:53;;;;;;;;;11.00;9.00;;;;;20.85;56.06;100459.22;5076119;27;45318;-59
2022/06/19 09:42:24;;;;;;;;;12.33;11.67;;;;;21.04;55.85;100466.31;5075769;28;45601;-59
2022/06/19 09:45:18;;;;;;;;;11.67;11.33;;;;;21.21;55.25;100465.41;5075584;27;46066;-58
2022/06/19 09:48:01;;;;;;;;;14.00;11.67;;;;;21.41;54.75;100476.09;5074148;27;45264;-60
2022/06/19 09:50:35;;;;;;;;;12.33;8.00;;;;;21.63;54.48;100474.72;5077532;27;45383;-59
2022/06/19 09:53:42;;;;;;;;;11.00;9.33;;;;;21.86;53.47;100483.09;5079652;27;45297;-60
2022/06/19 09:56:20;;;;;;;;;9.67;7.67;;;;;21.98;53.53;100481.81;5054607;28;45505;-59
2022/06/19 09:59:07;;;;;;;;;12.00;10.00;;;;;22.04;53.38;100489.31;5070298;27;45465;-62
2022/06/19 10:01:33;;;;;;;;;13.00;11.00;;;;;22.40;52.20;100472.84;5077857;27;45341;-57
2022/06/19 10:04:14;;;;;;;;;12.00;12.00;;;;;22.61;51.79;100470.53;5076109;27;45453;-58
2022/06/19 10:06:54;;;;;;;;;13.33;13.00;;;;;23.04;50.73;100458.56;5075396;28;46331;-61
2022/06/19 10:09:28;;;;;;;;;14.67;13.33;;;;;23.37;50.48;100439.56;5076967;27;45425;-59
2022/06/19 10:11:59;;;;;;;;;13.33;13.33;;;;;23.90;49.40;100441.66;5076414;27;45448;-60
2022/06/19 10:14:42;;;;;;;;;13.33;12.00;;;;;24.22;48.80;100453.38;5078572;27;45245;-60
2022/06/19 10:17:28;;;;;;;;;16.00;12.00;;;;;24.74;48.15;100433.72;5076478;27;45549;-57
2022/06/19 10:20:12;;;;;;;;;13.00;13.00;;;;;25.07;46.10;100427.03;5075414;27;45513;-58
2022/06/19 10:23:07;;;;;;;;;17.00;14.75;;;;;25.34;45.91;100433.72;5078890;27;45333;-54
2022/06/19 10:26:03;;;;;;;;;15.00;13.33;;;;;25.56;45.28;100429.25;5069364;28;45630;-59
2022/06/19 10:28:43;;;;;;;;;17.50;13.50;;;;;25.51;45.07;100428.97;5066184;27;45410;-58
2022/06/19 10:31:30;;;;;;;;;14.50;12.75;;;;;25.49;45.17;100390.19;5059925;28;45453;-58
2022/06/19 10:34:26;;;;;;;;;15.75;12.25;;;;;25.17;45.49;100416.72;5073110;28;45563;-57
2022/06/19 10:37:01;;;;;;;;;11.25;11.25;;;;;25.04;46.14;100404.78;5083543;27;45562;-58
2022/06/19 10:39:30;;;;;;;;;14.33;12.33;;;;;24.80;46.57;100403.94;5111687;27;46144;-58
2022/06/19 10:42:10;;;;;;;;;15.00;12.50;;;;;24.70;47.04;100409.59;5075438;28;45487;-60
2022/06/19 10:45:04;;;;;;;;;16.00;15.33;;;;;24.38;47.60;100407.13;5079600;27;45715;-60
2022/06/19 10:47:50;;;;;;;;;15.00;15.00;;;;;24.27;48.08;100419.22;5076981;27;45424;-57
2022/06/19 10:50:32;;;;;;;;;16.25;15.00;;;;;24.29;48.13;100421.75;5073034;28;45910;-58
2022/06/19 10:53:19;;;;;;;;;13.00;10.67;;;;;24.10;48.52;100417.63;5075019;28;45561;-58
2022/06/19 10:55:53;;;;;;;;;17.33;15.67;;;;;23.89;49.05;100418.22;5077941;27;45328;-60
2022/06/19 10:58:25;;;;;;;;;20.00;20.00;;;;;23.87;49.56;100422.16;5070367;28;45737;-59
2022/06/19 11:01:01;;;;;;;;;13.00;13.00;;;;;23.76;49.97;100420.66;5076802;27;46976;-58
2022/06/19 11:06:52;;;;;;;;;17.33;14.33;;;;;23.54;50.49;100412.19;5075567;28;46904;-59
2022/06/19 11:09:48;;;;;;;;;23.67;16.67;;;;;23.65;50.58;100419.16;5076670;27;45357;-63
2022/06/19 11:12:18;;;;;;;;;20.67;18.67;;;;;23.59;50.28;100421.75;5072587;28;46332;-62
2022/06/19 11:14:53;;;;;;;;;20.67;19.33;;;;;23.62;50.80;100416.81;5091276;27;45540;-62
2022/06/19 11:17:33;;;;;;;;;20.33;19.33;;;;;23.61;50.78;100427.84;5074548;28;45265;-55
2022/06/19 11:20:17;;;;;;;;;12.00;11.67;;;;;23.53;51.23;100432.22;5077120;28;45461;-54
2022/06/19 11:22:49;;;;;;;;;13.67;11.00;;;;;23.60;50.97;100437.00;5074102;27;46276;-56
2022/06/19 11:25:20;;;;;;;;;18.00;13.33;;;;;23.48;51.61;100445.47;5076092;27;45501;-57
2022/06/19 11:28:09;;;;;;;;;16.33;14.00;;;;;23.68;51.20;100439.69;5073833;28;45493;-54
2022/06/19 11:30:40;;;;;;;;;15.50;14.00;;;;;23.66;50.98;100420.00;5076668;28;45436;-55
2022/06/19 11:33:29;;;;;;;;;15.33;13.33;;;;;23.91;50.16;100412.63;5075058;27;46405;-57
2022/06/19 11:35:58;;;;;;;;;12.33;12.33;;;;;23.94;49.76;100396.81;5057297;28;45346;-56
2022/06/19 11:38:40;;;;;;;;;18.33;16.00;;;;;23.82;49.78;100403.66;5062620;28;46687;-55
2022/06/19 11:41:30;;;;;;;;;14.33;14.00;;;;;23.68;49.77;100423.38;5077342;28;45491;-58
2022/06/19 11:44:16;;;;;;;;;20.67;17.33;;;;;23.53;50.37;100415.94;5056845;27;45385;-56
2022/06/19 11:46:46;;;;;;;;;14.67;13.67;;;;;23.87;50.10;100400.44;5108483;27;45581;-56
2022/06/19 11:49:19;;;;;;;;;15.00;11.00;;;;;24.01;48.97;100392.38;5073717;27;45391;-57